Time;durP1;ratioP1;P1;durP2;ratioP2;P2;SDS_P1;SDS_P2;PMS_P1;PMS_P2;Temp;Humidity;BMP_temperature;BMP_pressure;BME280_temperature;BME280_humidity;BME280_pressure;Samples;Min_cycle;Max_cycle;Signal;HPM_P1;HPM_P2
2023/03/26 00:01:15;;;;;;;4.38;1.33;;;;;;;5.24;100.00;96770.38;5082444;28;20048;-60
2023/03/26 00:03:45;;;;;;;6.70;1.98;;;;;;;5.12;100.00;96769.53;5084404;28;20048;-60
2023/03/26 00:06:16;;;;;;;4.53;1.65;;;;;;;4.85;100.00;96776.13;5084761;28;20481;-58
2023/03/26 00:08:44;;;;;;;4.43;1.20;;;;;;;4.90;100.00;96773.56;5085828;28;20040;-59
2023/03/26 00:11:13;;;;;;;4.18;1.20;;;;;;;4.94;100.00;96773.97;5086108;28;20663;-57
2023/03/26 00:13:42;;;;;;;4.68;1.48;;;;;;;4.88;100.00;96785.59;5086081;28;20622;-59
2023/03/26 00:16:12;;;;;;;8.98;1.70;;;;;;;4.74;100.00;96780.44;5085543;28;20122;-59
2023/03/26 00:18:41;;;;;;;7.03;2.08;;;;;;;4.76;100.00;96786.38;5085772;28;20048;-58
2023/03/26 00:21:11;;;;;;;6.40;1.80;;;;;;;4.46;100.00;96784.50;5085690;28;20123;-59
2023/03/26 00:23:38;;;;;;;5.85;2.10;;;;;;;4.28;100.00;96785.41;5086240;28;20113;-58
2023/03/26 00:26:09;;;;;;;6.63;2.25;;;;;;;4.22;100.00;96787.09;5083249;28;20063;-58
2023/03/26 00:28:39;;;;;;;10.70;2.47;;;;;;;4.11;100.00;96782.50;5086184;28;20032;-58
2023/03/26 00:31:09;;;;;;;4.75;1.85;;;;;;;4.01;100.00;96783.00;5086219;28;20043;-59
2023/03/26 00:33:37;;;;;;;6.35;1.95;;;;;;;3.92;100.00;96779.84;5086174;28;20032;-59
2023/03/26 00:36:08;;;;;;;6.47;1.98;;;;;;;4.02;100.00;96785.47;5085494;28;20036;-58
2023/03/26 00:38:37;;;;;;;;;;;;;;;3.92;100.00;96784.38;5083371;28;20035;-59
2023/03/26 00:41:16;;;;;;;5.70;1.92;;;;;;;3.82;100.00;96777.69;5083598;28;19923;-59
2023/03/26 00:43:45;;;;;;;6.75;1.88;;;;;;;3.88;100.00;96781.31;5085447;28;20032;-59
2023/03/26 00:46:12;;;;;;;4.70;2.08;;;;;;;3.76;100.00;96775.91;5066855;28;20074;-59
2023/03/26 00:48:41;;;;;;;5.60;2.10;;;;;;;3.68;100.00;96782.34;5083488;28;20036;-59
2023/03/26 00:51:14;;;;;;;9.30;1.90;;;;;;;3.58;100.00;96779.38;5085437;28;20052;-59
2023/03/26 00:53:45;;;;;;;10.77;2.40;;;;;;;3.58;100.00;96780.19;5084894;28;20083;-58
2023/03/26 00:56:12;;;;;;;12.88;1.92;;;;;;;3.59;100.00;96775.66;5084801;28;20032;-60
2023/03/26 00:58:39;;;;;;;5.90;2.03;;;;;;;3.65;100.00;96766.75;5082123;28;20642;-58
2023/03/26 01:01:17;;;;;;;9.73;1.80;;;;;;;3.73;100.00;96768.31;5069691;28;20139;-58
2023/03/26 01:03:45;;;;;;;5.25;1.58;;;;;;;3.89;100.00;96761.53;5083153;28;20043;-58
2023/03/26 01:06:34;;;;;;;6.05;1.75;;;;;;;4.09;100.00;96755.13;5081726;28;20523;-57
2023/03/26 01:09:10;;;;;;;6.15;1.92;;;;;;;3.81;100.00;96746.59;5082963;28;20050;-58
2023/03/26 01:11:36;;;;;;;5.03;1.52;;;;;;;3.95;100.00;96746.44;5084989;28;20101;-58
2023/03/26 01:14:13;;;;;;;7.60;1.45;;;;;;;4.08;100.00;96740.06;5084604;28;20036;-60
2023/03/26 01:16:43;;;;;;;4.85;1.70;;;;;;;4.00;100.00;96725.97;5084667;28;20501;-59
2023/03/26 01:19:21;;;;;;;5.22;1.60;;;;;;;3.97;100.00;96722.91;5085275;28;20055;-59
2023/03/26 01:21:48;;;;;;;6.40;1.65;;;;;;;4.05;100.00;96716.44;5084690;28;20036;-59
2023/03/26 01:24:15;;;;;;;6.47;1.40;;;;;;;4.30;100.00;96705.56;5066845;28;20568;-59
2023/03/26 01:27:03;;;;;;;15.45;2.10;;;;;;;4.53;100.00;96699.47;5083159;28;20067;-59
2023/03/26 01:29:40;;;;;;;5.20;1.33;;;;;;;4.67;100.00;96692.03;5083934;28;20048;-59
2023/03/26 01:32:23;;;;;;;8.73;1.40;;;;;;;4.63;100.00;96693.53;5063878;28;20036;-57
2023/03/26 01:34:57;;;;;;;5.07;1.15;;;;;;;4.80;100.00;96685.63;5083741;28;20032;-57
2023/03/26 01:37:29;;;;;;;8.90;1.52;;;;;;;4.98;100.00;96680.41;5072042;28;20074;-58
2023/03/26 01:40:06;;;;;;;7.47;1.60;;;;;;;5.03;100.00;96680.50;5083530;28;20051;-56
2023/03/26 01:42:58;;;;;;;5.93;1.27;;;;;;;5.14;100.00;96671.66;5083761;28;20487;-58
2023/03/26 01:45:29;;;;;;;6.45;1.30;;;;;;;5.17;100.00;96667.69;5064901;28;20039;-58
2023/03/26 01:47:57;;;;;;;6.20;1.88;;;;;;;5.15;100.00;96667.06;5061714;28;20044;-58
2023/03/26 01:50:24;;;;;;;4.25;1.25;;;;;;;5.04;100.00;96666.88;5079602;28;20040;-58
2023/03/26 01:52:50;;;;;;;8.00;1.35;;;;;;;5.07;100.00;96660.22;5081568;28;20313;-58
2023/03/26 01:55:17;;;;;;;5.55;1.33;;;;;;;5.14;100.00;96647.50;5083425;28;20052;-59
2023/03/26 01:57:59;;;;;;;5.75;1.20;;;;;;;5.22;100.00;96640.94;5079475;28;20039;-57
2023/03/26 02:00:32;;;;;;;6.15;1.30;;;;;;;5.14;100.00;96638.63;5062372;28;20579;-60
2023/03/26 02:03:30;;;;;;;6.80;1.27;;;;;;;5.27;100.00;96633.00;5081494;28;20047;-57
2023/03/26 02:06:19;;;;;;;7.35;1.63;;;;;;;5.13;100.00;96623.56;5063121;28;20046;-58
2023/03/26 02:09:05;;;;;;;4.28;1.60;;;;;;;4.96;100.00;96616.22;5083304;28;20040;-57
2023/03/26 02:11:36;;;;;;;4.65;1.23;;;;;;;5.01;100.00;96620.91;5062365;28;20040;-58
2023/03/26 02:14:04;;;;;;;5.32;1.30;;;;;;;5.02;100.00;96603.75;5083105;28;20044;-57
2023/03/26 02:16:31;;;;;;;2.83;1.20;;;;;;;5.09;100.00;96601.78;5083032;28;20036;-58
2023/03/26 02:18:59;;;;;;;4.55;1.05;;;;;;;5.25;100.00;96605.59;5064595;28;20108;-58
2023/03/26 02:21:26;;;;;;;6.50;1.48;;;;;;;5.41;100.00;96603.19;5082677;28;20488;-58
2023/03/26 02:24:01;;;;;;;3.97;1.27;;;;;;;5.27;100.00;96594.63;5064498;28;20384;-59
2023/03/26 02:26:33;;;;;;;3.25;1.13;;;;;;;5.25;100.00;96597.53;5064905;28;20587;-58
2023/03/26 02:29:06;;;;;;;7.78;1.80;;;;;;;5.14;100.00;96590.31;5081441;28;20070;-59
2023/03/26 02:31:35;;;;;;;3.55;1.30;;;;;;;5.18;100.00;96592.31;5065237;28;20501;-58
2023/03/26 02:34:02;;;;;;;6.95;1.20;;;;;;;5.08;100.00;96589.38;5083016;28;20036;-58
2023/03/26 02:36:31;;;;;;;9.25;1.17;;;;;;;5.01;100.00;96586.03;5064284;28;20048;-58
2023/03/26 02:39:01;;;;;;;5.28;1.20;;;;;;;5.12;100.00;96589.75;5063995;28;20059;-58
2023/03/26 02:41:31;;;;;;;5.60;1.20;;;;;;;5.12;100.00;96582.50;5054992;28;20048;-58
2023/03/26 02:44:02;;;;;;;3.88;1.20;;;;;;;5.04;100.00;96586.38;5056909;28;20040;-56
2023/03/26 02:46:49;;;;;;;5.18;1.20;;;;;;;4.95;100.00;96585.91;5081541;28;20048;-57
2023/03/26 02:49:34;;;;;;;5.65;1.23;;;;;;;4.93;100.00;96589.88;5079346;28;20564;-58
2023/03/26 02:52:05;;;;;;;5.80;1.40;;;;;;;4.87;100.00;96586.25;5062485;28;20040;-57
2023/03/26 02:54:33;;;;;;;4.10;1.00;;;;;;;4.90;100.00;96576.94;5064630;28;20044;-58
2023/03/26 02:57:20;;;;;;;7.30;1.27;;;;;;;4.93;100.00;96568.41;5064836;28;20035;-59
2023/03/26 03:00:11;;;;;;;6.00;1.80;;;;;;;5.01;100.00;96564.56;5063919;28;20166;-59
2023/03/26 03:02:38;;;;;;;6.30;2.05;;;;;;;4.97;100.00;96553.47;5083057;28;20093;-58
2023/03/26 03:05:25;;;;;;;4.00;1.40;;;;;;;4.90;100.00;96552.81;5040752;28;20588;-59
2023/03/26 03:08:10;;;;;;;6.10;1.67;;;;;;;4.94;100.00;96556.66;5064586;28;20090;-59
2023/03/26 03:10:43;;;;;;;5.60;1.35;;;;;;;5.03;100.00;96546.34;5064075;28;20575;-58
2023/03/26 03:13:18;;;;;;;4.72;1.73;;;;;;;4.92;100.00;96548.00;5064370;28;20035;-59
2023/03/26 03:15:45;;;;;;;5.40;1.50;;;;;;;4.89;100.00;96532.38;5062289;28;20040;-59
2023/03/26 03:18:12;;;;;;;4.50;1.33;;;;;;;4.89;100.00;96529.69;5069359;28;20051;-59
2023/03/26 03:20:39;;;;;;;10.07;1.60;;;;;;;4.80;100.00;96522.00;5064193;28;20615;-59
2023/03/26 03:23:05;;;;;;;4.38;1.40;;;;;;;4.79;100.00;96520.38;5084080;28;20036;-57
2023/03/26 03:25:32;;;;;;;5.68;1.67;;;;;;;4.78;100.00;96517.94;5065360;28;20048;-58
2023/03/26 03:27:59;;;;;;;4.00;1.13;;;;;;;4.80;100.00;96515.84;5086204;28;20093;-58
2023/03/26 03:30:26;;;;;;;8.18;1.65;;;;;;;4.88;100.00;96509.28;5087093;28;20698;-59
2023/03/26 03:32:52;;;;;;;4.55;1.20;;;;;;;4.89;100.00;96501.00;5085175;28;20054;-59
2023/03/26 03:35:21;;;;;;;6.05;1.45;;;;;;;4.91;100.00;96498.09;5067783;28;20044;-59
2023/03/26 03:37:52;;;;;;;6.82;1.52;;;;;;;4.93;100.00;96487.94;5065262;28;20108;-58
2023/03/26 03:40:19;;;;;;;4.32;1.20;;;;;;;4.95;100.00;96493.88;5067177;28;20127;-59
2023/03/26 03:42:46;;;;;;;6.82;1.50;;;;;;;5.00;100.00;96487.78;5067413;28;20044;-59
2023/03/26 03:45:19;;;;;;;6.20;1.60;;;;;;;5.08;100.00;96482.06;5067982;28;20042;-59
2023/03/26 03:48:05;;;;;;;6.60;1.42;;;;;;;5.05;100.00;96482.56;5064438;28;20533;-59
2023/03/26 03:50:38;;;;;;;5.22;1.30;;;;;;;5.08;100.00;96480.19;5065621;28;20032;-59
2023/03/26 03:53:25;;;;;;;5.82;1.60;;;;;;;5.17;100.00;96482.50;5066819;28;20048;-59
2023/03/26 03:55:57;;;;;;;5.70;1.52;;;;;;;5.20;100.00;96474.78;5066316;28;20067;-59
2023/03/26 03:58:46;;;;;;;6.32;1.08;;;;;;;5.19;100.00;96481.19;5083475;28;20177;-58
2023/03/26 04:01:21;;;;;;;6.95;1.40;;;;;;;5.18;100.00;96478.75;5068063;28;20055;-59
2023/03/26 04:03:57;;;;;;;5.78;1.13;;;;;;;5.02;100.00;96475.75;5067331;28;20744;-58
2023/03/26 04:06:36;;;;;;;7.78;1.10;;;;;;;4.98;100.00;96466.59;5067254;28;20052;-59
2023/03/26 04:09:02;;;;;;;3.53;1.45;;;;;;;5.02;100.00;96458.88;5066285;28;20461;-59
2023/03/26 04:11:29;;;;;;;7.45;1.60;;;;;;;5.00;100.00;96456.41;5068236;28;20032;-59
2023/03/26 04:14:11;;;;;;;3.13;1.20;;;;;;;4.99;100.00;96454.81;5064003;28;20184;-59
2023/03/26 04:16:58;;;;;;;6.82;1.60;;;;;;;4.93;100.00;96448.50;5064973;28;20044;-59
2023/03/26 04:19:27;;;;;;;7.93;1.77;;;;;;;4.89;100.00;96443.84;5065685;28;20072;-59
2023/03/26 04:21:54;;;;;;;6.35;1.70;;;;;;;4.87;100.00;96441.41;5066825;28;20040;-59
2023/03/26 04:24:21;;;;;;;5.38;1.67;;;;;;;4.91;100.00;96442.56;5067077;28;20043;-59
2023/03/26 04:27:15;;;;;;;7.10;1.73;;;;;;;5.01;100.00;96436.56;5084744;28;20064;-58
2023/03/26 04:29:47;;;;;;;7.07;1.95;;;;;;;4.97;100.00;96427.38;5067109;28;20666;-59
2023/03/26 04:32:18;;;;;;;6.45;1.48;;;;;;;5.02;100.00;96407.88;5063964;28;20062;-58
2023/03/26 04:34:46;;;;;;;5.90;1.77;;;;;;;5.06;100.00;96401.78;5065594;28;20044;-57
2023/03/26 04:37:25;;;;;;;6.30;1.65;;;;;;;5.11;100.00;96397.56;5080980;28;20414;-59
2023/03/26 04:40:10;;;;;;;6.38;1.60;;;;;;;4.98;100.00;96398.69;5066066;28;20040;-59
2023/03/26 04:42:46;;;;;;;5.40;1.33;;;;;;;4.89;100.00;96401.75;5066361;28;20044;-57
2023/03/26 04:45:25;;;;;;;6.05;1.33;;;;;;;4.61;100.00;96397.19;5062531;28;20086;-58
2023/03/26 04:47:58;;;;;;;12.30;2.22;;;;;;;4.57;100.00;96401.41;5065884;28;20048;-59
2023/03/26 04:50:25;;;;;;;5.50;1.40;;;;;;;4.61;100.00;96399.88;5079340;28;20059;-57
2023/03/26 04:52:55;;;;;;;5.55;1.58;;;;;;;4.64;100.00;96394.03;5065487;28;20463;-58
2023/03/26 04:55:58;;;;;;;7.45;1.55;;;;;;;4.73;100.00;96387.25;5083327;28;20140;-57
2023/03/26 04:58:44;;;;;;;4.35;1.45;;;;;;;4.84;100.00;96390.13;5083415;28;20078;-58
2023/03/26 05:01:11;;;;;;;6.63;1.45;;;;;;;4.91;100.00;96391.59;5085144;28;20048;-58
2023/03/26 05:03:44;;;;;;;9.63;1.80;;;;;;;5.03;100.00;96383.50;5064149;28;20070;-59
2023/03/26 05:06:13;;;;;;;5.88;1.30;;;;;;;5.03;100.00;96385.38;5066434;28;20040;-60
2023/03/26 05:08:40;;;;;;;6.57;1.88;;;;;;;5.11;100.00;96381.47;5066950;28;20558;-58
2023/03/26 05:11:11;;;;;;;4.55;1.10;;;;;;;5.07;100.00;96375.78;5064614;28;20058;-59
2023/03/26 05:13:38;;;;;;;3.88;1.17;;;;;;;5.04;100.00;96378.94;5056253;28;20305;-59
2023/03/26 05:16:10;;;;;;;5.80;1.52;;;;;;;5.07;100.00;96367.72;5066389;28;20106;-59
2023/03/26 05:18:46;;;;;;;6.68;1.60;;;;;;;5.07;100.00;96354.31;5064621;28;20044;-59
2023/03/26 05:21:13;;;;;;;5.30;1.33;;;;;;;5.07;100.00;96354.31;5064417;28;20049;-59
2023/03/26 05:23:39;;;;;;;3.92;1.60;;;;;;;4.99;100.00;96343.97;5066420;28;20028;-59
2023/03/26 05:26:15;;;;;;;4.80;1.35;;;;;;;4.95;100.00;96335.59;5063740;28;20059;-57
2023/03/26 05:28:42;;;;;;;8.05;1.83;;;;;;;4.95;100.00;96327.56;5083569;28;20039;-58
2023/03/26 05:31:32;;;;;;;7.38;1.80;;;;;;;4.99;100.00;96317.16;5072746;28;20416;-58
2023/03/26 05:34:00;;;;;;;7.40;1.67;;;;;;;5.01;100.00;96321.22;5065365;28;20408;-59
2023/03/26 05:36:27;;;;;;;9.30;1.60;;;;;;;4.98;100.00;96313.66;5065875;28;20071;-58
2023/03/26 05:39:04;;;;;;;5.05;1.60;;;;;;;4.94;100.00;96321.38;5065490;28;20126;-58
2023/03/26 05:41:54;;;;;;;7.22;1.88;;;;;;;4.81;100.00;96314.44;5080164;28;20140;-57
2023/03/26 05:44:27;;;;;;;5.93;1.98;;;;;;;4.64;100.00;96322.44;5062408;28;20038;-58
2023/03/26 05:46:54;;;;;;;7.32;1.90;;;;;;;4.77;100.00;96321.34;5064800;28;20051;-59
2023/03/26 05:49:24;;;;;;;11.43;2.55;;;;;;;4.79;100.00;96313.06;5063749;28;20041;-60
2023/03/26 05:51:52;;;;;;;5.18;1.83;;;;;;;4.94;100.00;96294.53;5077490;28;20044;-58
2023/03/26 05:54:33;;;;;;;6.20;2.00;;;;;;;5.04;100.00;96290.41;5059790;28;20060;-59
2023/03/26 05:57:21;;;;;;;9.40;1.90;;;;;;;5.21;100.00;96275.09;5080271;28;20374;-59
2023/03/26 06:00:23;;;;;;;6.90;1.58;;;;;;;5.27;100.00;96265.28;5027769;28;20099;-59
2023/03/26 06:02:53;;;;;;;4.63;1.50;;;;;;;5.24;100.00;96265.78;5052453;28;20426;-59
2023/03/26 06:05:56;;;;;;;6.20;1.80;;;;;;;5.26;100.00;96265.50;5062939;28;20052;-58
2023/03/26 06:08:38;;;;;;;5.72;1.73;;;;;;;5.33;100.00;96248.19;5062131;28;20044;-59
2023/03/26 06:11:09;;;;;;;8.35;1.95;;;;;;;5.42;100.00;96245.91;5060118;28;20045;-58
2023/03/26 06:13:38;;;;;;;7.65;2.08;;;;;;;5.68;100.00;96237.41;5062070;28;20066;-60
2023/03/26 06:16:05;;;;;;;7.82;1.33;;;;;;;5.71;100.00;96226.13;5061645;28;20048;-59
2023/03/26 06:18:35;;;;;;;5.40;1.65;;;;;;;5.77;100.00;96227.84;5077883;28;20036;-59
2023/03/26 06:21:11;;;;;;;4.90;1.50;;;;;;;5.66;100.00;96232.28;5081256;28;20062;-58
2023/03/26 06:23:43;;;;;;;6.82;1.80;;;;;;;5.54;100.00;96223.50;5059085;28;20040;-59
2023/03/26 06:26:29;;;;;;;5.35;1.90;;;;;;;5.65;100.00;96221.78;5063001;28;20055;-58
2023/03/26 06:29:15;;;;;;;7.60;1.75;;;;;;;5.62;100.00;96224.94;5062834;28;20124;-58
2023/03/26 06:32:02;;;;;;;6.97;1.40;;;;;;;5.60;100.00;96220.66;5057889;28;20110;-58
2023/03/26 06:34:48;;;;;;;9.30;1.48;;;;;;;5.65;100.00;96232.50;5057615;28;20086;-57
2023/03/26 06:37:17;;;;;;;6.25;1.55;;;;;;;5.69;100.00;96221.03;5062240;28;20167;-59
2023/03/26 06:39:45;;;;;;;9.38;1.75;;;;;;;5.76;100.00;96218.16;5062500;28;20047;-60
2023/03/26 06:42:17;;;;;;;4.05;1.35;;;;;;;5.77;100.00;96217.09;5065165;28;20081;-59
2023/03/26 06:44:44;;;;;;;4.93;1.33;;;;;;;5.76;100.00;96215.47;5062697;28;20581;-57
2023/03/26 06:47:29;;;;;;;6.45;1.42;;;;;;;5.81;100.00;96203.97;5081477;28;20423;-59
2023/03/26 06:50:14;;;;;;;4.05;1.27;;;;;;;5.89;100.00;96184.72;5081177;28;20055;-60
2023/03/26 06:53:10;;;;;;;6.43;1.42;;;;;;;5.92;100.00;96186.09;5023750;28;20549;-58
2023/03/26 06:55:53;;;;;;;5.50;1.35;;;;;;;5.85;100.00;96189.78;5061977;28;20049;-58
2023/03/26 06:58:22;;;;;;;7.05;1.42;;;;;;;5.78;100.00;96189.16;5079636;28;20071;-59
2023/03/26 07:01:07;;;;;;;8.07;2.00;;;;;;;5.78;100.00;96186.47;5079869;28;20055;-58
2023/03/26 07:03:53;;;;;;;6.15;1.48;;;;;;;5.79;100.00;96181.94;5080001;28;20046;-60
2023/03/26 07:06:38;;;;;;;5.90;1.42;;;;;;;5.77;100.00;96175.97;5078146;28;20047;-58
2023/03/26 07:09:25;;;;;;;5.82;1.23;;;;;;;5.72;100.00;96166.00;5081227;28;20063;-60
2023/03/26 07:12:26;;;;;;;4.40;1.40;;;;;;;5.75;100.00;96170.84;5007182;28;20057;-59
2023/03/26 07:15:11;;;;;;;4.25;1.40;;;;;;;5.76;100.00;96142.97;5073544;28;20371;-59
2023/03/26 07:18:13;;;;;;;7.63;1.38;;;;;;;5.79;100.00;96169.28;5033868;28;20056;-58
2023/03/26 07:20:44;;;;;;;7.72;1.60;;;;;;;5.73;100.00;96132.72;5050369;28;20076;-57
2023/03/26 07:23:12;;;;;;;6.95;1.40;;;;;;;5.65;100.00;96147.41;5080250;28;20087;-58
2023/03/26 07:25:55;;;;;;;4.38;1.35;;;;;;;5.92;100.00;96169.97;5046016;28;20407;-57
2023/03/26 07:28:38;;;;;;;9.32;1.77;;;;;;;5.78;100.00;96110.47;5080156;28;20059;-59
2023/03/26 07:31:25;;;;;;;8.07;1.73;;;;;;;5.58;100.00;96134.16;5080939;28;20058;-58
2023/03/26 07:34:39;;;;;;;7.15;1.33;;;;;;;5.57;100.00;96143.25;5061167;28;20123;-60
2023/03/26 07:37:49;;;;;;;3.13;1.15;;;;;;;5.78;100.00;96129.28;5032632;28;20142;-60
2023/03/26 07:40:47;;;;;;;7.68;1.25;;;;;;;5.75;100.00;96119.81;5077213;28;20162;-60
2023/03/26 07:44:17;;;;;;;8.43;1.80;;;;;;;5.72;100.00;96117.66;5079299;28;20121;-58
2023/03/26 07:47:31;;;;;;;5.65;1.30;;;;;;;5.83;100.00;96105.94;5003196;28;20062;-59
2023/03/26 07:50:22;;;;;;;3.67;1.25;;;;;;;5.60;100.00;96113.22;5065120;28;20066;-59
2023/03/26 07:53:00;;;;;;;4.53;1.33;;;;;;;5.57;100.00;96110.25;5061444;28;20048;-60
2023/03/26 07:55:40;;;;;;;6.18;1.60;;;;;;;5.42;100.00;96103.63;5081285;28;20032;-60
2023/03/26 07:59:11;;;;;;;5.20;1.60;;;;;;;5.57;100.00;96102.97;5057115;28;20189;-59
2023/03/26 08:02:32;;;;;;;4.00;1.40;;;;;;;5.64;100.00;96097.41;5064093;28;20052;-58
2023/03/26 08:05:29;;;;;;;5.65;1.38;;;;;;;5.63;100.00;96092.31;5062310;28;20072;-59
2023/03/26 08:08:23;;;;;;;8.13;1.88;;;;;;;5.71;100.00;96084.63;5065489;28;20040;-60
2023/03/26 08:11:28;;;;;;;5.97;1.60;;;;;;;5.82;100.00;96093.59;5040341;28;20052;-60
2023/03/26 08:14:02;;;;;;;4.05;1.50;;;;;;;5.97;100.00;96086.75;5063071;28;20044;-60
2023/03/26 08:16:59;;;;;;;6.80;1.60;;;;;;;5.94;100.00;96076.50;5062078;28;20170;-59
2023/03/26 08:19:49;;;;;;;5.97;1.50;;;;;;;6.01;100.00;96071.72;5082269;28;20518;-60
2023/03/26 08:22:25;;;;;;;6.45;1.55;;;;;;;6.02;100.00;96073.38;5082105;28;20123;-60
2023/03/26 08:25:11;;;;;;;5.68;1.65;;;;;;;5.99;100.00;96071.19;5061831;28;20559;-59
2023/03/26 08:27:50;;;;;;;6.68;1.60;;;;;;;5.92;100.00;96081.31;5080233;28;20044;-60
2023/03/26 08:30:23;;;;;;;5.35;1.23;;;;;;;5.98;100.00;96072.25;5083231;28;20048;-59
2023/03/26 08:33:20;;;;;;;6.85;1.48;;;;;;;6.03;100.00;96071.47;5079223;28;20567;-59
2023/03/26 08:35:47;;;;;;;6.53;2.60;;;;;;;5.80;100.00;96065.34;5063875;28;20309;-58
2023/03/26 08:38:17;;;;;;;9.25;1.60;;;;;;;5.67;100.00;96066.56;5081834;28;20434;-58
2023/03/26 08:41:13;;;;;;;5.15;1.80;;;;;;;5.70;100.00;96068.75;5079700;28;20691;-60
2023/03/26 08:43:55;;;;;;;6.78;2.10;;;;;;;5.93;100.00;96061.47;5080353;28;20132;-59
2023/03/26 08:46:31;;;;;;;8.80;2.15;;;;;;;6.06;100.00;96079.06;5064064;28;20048;-59
2023/03/26 08:49:28;;;;;;;6.68;1.65;;;;;;;5.75;100.00;96074.16;5063596;28;20052;-58
2023/03/26 08:52:17;;;;;;;6.68;2.50;;;;;;;5.58;100.00;96080.47;5082034;28;20038;-59
2023/03/26 08:55:05;;;;;;;7.57;2.10;;;;;;;5.61;100.00;96076.47;5081041;28;20052;-59
2023/03/26 08:57:52;;;;;;;7.15;2.70;;;;;;;5.62;100.00;96085.31;5061944;28;20048;-61
2023/03/26 09:00:29;;;;;;;9.70;2.58;;;;;;;5.54;100.00;96073.97;5081512;28;20051;-59
2023/03/26 09:03:34;;;;;;;8.73;2.47;;;;;;;5.53;100.00;96088.44;5076495;28;20094;-59
2023/03/26 09:06:16;;;;;;;11.63;2.58;;;;;;;5.72;100.00;96080.06;5079006;28;20032;-58
2023/03/26 09:09:31;;;;;;;8.05;2.88;;;;;;;6.02;100.00;96083.28;5061037;28;20048;-58
2023/03/26 09:12:22;;;;;;;9.93;2.63;;;;;;;6.14;100.00;96070.53;5044349;28;20052;-59
2023/03/26 09:15:19;;;;;;;7.63;2.70;;;;;;;6.10;100.00;96056.81;5081578;28;20115;-60
2023/03/26 09:18:04;;;;;;;7.78;2.78;;;;;;;6.07;100.00;96045.75;5080459;28;20044;-58
2023/03/26 09:21:00;;;;;;;7.05;2.80;;;;;;;6.24;100.00;96054.50;5080980;28;20617;-59
2023/03/26 09:23:47;;;;;;;9.88;3.47;;;;;;;6.50;100.00;96035.06;5082260;28;20043;-59
2023/03/26 09:26:24;;;;;;;8.40;3.38;;;;;;;6.82;100.00;96055.69;5080266;28;20048;-60
2023/03/26 09:29:21;;;;;;;11.43;2.85;;;;;;;7.08;100.00;96041.56;5080613;28;20695;-60
2023/03/26 09:32:25;;;;;;;11.40;4.93;;;;;;;7.39;100.00;96039.00;5060997;28;20051;-60
2023/03/26 09:35:12;;;;;;;8.35;3.05;;;;;;;7.27;100.00;96037.31;5078526;28;20032;-60
2023/03/26 09:37:57;;;;;;;8.88;2.28;;;;;;;7.63;100.00;96039.31;5060284;28;20235;-61
2023/03/26 09:40:43;;;;;;;8.25;2.30;;;;;;;7.48;100.00;96039.31;5058455;28;20036;-60
2023/03/26 09:43:41;;;;;;;9.13;1.90;;;;;;;7.68;100.00;96052.00;5072759;28;20101;-60
2023/03/26 09:46:27;;;;;;;4.15;2.15;;;;;;;7.86;100.00;96041.81;5078051;28;20064;-60
2023/03/26 09:49:24;;;;;;;6.15;2.15;;;;;;;7.80;100.00;96039.09;5071762;28;20040;-60
2023/03/26 09:52:19;;;;;;;9.55;2.00;;;;;;;7.78;100.00;96033.16;5054695;28;20053;-60
2023/03/26 09:54:52;;;;;;;4.88;1.98;;;;;;;8.07;100.00;96037.22;5073517;28;20089;-61
2023/03/26 09:57:36;;;;;;;3.78;1.50;;;;;;;8.14;100.00;96037.78;5061249;28;20434;-60
2023/03/26 10:00:42;;;;;;;4.82;1.80;;;;;;;8.39;100.00;96036.16;5080504;28;20048;-61
2023/03/26 10:03:31;;;;;;;4.90;1.80;;;;;;;8.42;100.00;96032.94;5051696;28;20066;-61
2023/03/26 10:06:36;;;;;;;4.93;1.52;;;;;;;8.55;100.00;96014.59;5078407;28;20043;-60
2023/03/26 10:09:17;;;;;;;4.15;1.40;;;;;;;8.71;100.00;96016.16;5077418;28;20063;-61
2023/03/26 10:11:46;;;;;;;4.45;1.40;;;;;;;8.93;100.00;96022.34;5060511;28;20555;-60
2023/03/26 10:14:31;;;;;;;1.38;0.65;;;;;;;9.10;94.59;96016.59;5077316;28;20115;-60
2023/03/26 10:17:27;;;;;;;4.35;1.40;;;;;;;9.33;95.88;96020.56;5059989;28;20434;-60
2023/03/26 10:20:07;;;;;;;1.23;0.60;;;;;;;9.37;90.47;96010.03;5060558;28;20102;-60
2023/03/26 10:22:56;;;;;;;2.35;0.60;;;;;;;9.50;92.33;96012.09;5059728;28;20042;-60
2023/03/26 10:25:49;;;;;;;3.60;0.70;;;;;;;9.61;82.74;96009.34;5059925;28;20047;-61
2023/03/26 10:28:54;;;;;;;3.55;0.50;;;;;;;9.81;82.20;96021.13;5079711;28;20294;-60
2023/03/26 10:31:50;;;;;;;3.90;0.90;;;;;;;9.85;81.07;95995.16;5079414;28;20060;-60
2023/03/26 10:34:54;;;;;;;3.47;0.70;;;;;;;10.06;81.89;95995.78;5078264;28;20048;-60
2023/03/26 10:37:36;;;;;;;3.47;1.05;;;;;;;10.23;79.81;96008.91;5078802;28;20093;-60
2023/03/26 10:40:19;;;;;;;2.35;0.50;;;;;;;10.28;82.88;96000.75;5079099;28;20116;-61
2023/03/26 10:43:00;;;;;;;1.27;0.40;;;;;;;10.45;81.59;96013.09;5058445;28;20119;-60
2023/03/26 10:45:34;;;;;;;2.85;0.65;;;;;;;10.77;82.44;96008.19;5079247;28;20046;-61
2023/03/26 10:48:29;;;;;;;2.63;0.40;;;;;;;10.61;70.99;96002.91;5078863;28;20051;-60
2023/03/26 10:51:04;;;;;;;1.40;0.50;;;;;;;10.62;78.96;95995.63;5079365;28;20120;-60
2023/03/26 10:53:49;;;;;;;2.15;0.40;;;;;;;10.66;77.16;95983.13;5077527;28;20036;-60
2023/03/26 10:56:27;;;;;;;1.83;0.50;;;;;;;10.64;70.21;95991.53;5076163;28;20040;-61
2023/03/26 10:58:55;;;;;;;1.98;0.45;;;;;;;10.35;69.58;95992.31;5079208;28;20051;-60
2023/03/26 11:01:42;;;;;;;2.28;0.80;;;;;;;10.70;71.88;95986.88;5079147;28;20579;-61
2023/03/26 11:04:25;;;;;;;0.88;0.47;;;;;;;10.75;72.66;95996.81;5077638;28;20039;-61
2023/03/26 11:06:52;;;;;;;1.75;0.50;;;;;;;10.59;68.34;95999.69;5078302;28;20062;-61
2023/03/26 11:09:29;;;;;;;1.80;0.40;;;;;;;10.49;66.25;95994.38;5079226;28;20071;-62
2023/03/26 11:12:08;;;;;;;2.50;0.50;;;;;;;10.82;69.39;95978.34;5076448;28;20052;-61
2023/03/26 11:15:05;;;;;;;0.98;0.32;;;;;;;11.13;64.45;95991.50;5071778;28;20701;-61
2023/03/26 11:17:49;;;;;;;0.80;0.30;;;;;;;11.01;63.25;95991.94;5080064;28;20623;-61
2023/03/26 11:20:39;;;;;;;0.80;0.30;;;;;;;11.12;64.37;95984.50;5075374;28;20044;-61
2023/03/26 11:23:20;;;;;;;3.38;0.70;;;;;;;10.90;64.22;95982.31;5065298;28;20080;-61
2023/03/26 11:25:50;;;;;;;1.48;0.60;;;;;;;10.88;64.83;95988.00;5061767;28;20711;-60
2023/03/26 11:28:30;;;;;;;1.45;0.63;;;;;;;10.83;63.30;95990.00;5061737;28;20105;-61
2023/03/26 11:31:07;;;;;;;2.47;0.60;;;;;;;10.74;65.35;95996.03;5079801;28;20047;-61
2023/03/26 11:33:38;;;;;;;4.18;0.50;;;;;;;10.80;66.57;95988.66;5081158;28;20044;-60
2023/03/26 11:36:16;;;;;;;3.85;0.80;;;;;;;10.67;69.40;95990.13;5077871;28;20442;-61
2023/03/26 11:38:46;;;;;;;1.52;0.40;;;;;;;10.21;81.42;95994.06;5062371;28;20044;-61
2023/03/26 11:41:24;;;;;;;2.10;0.43;;;;;;;9.94;83.09;96003.44;5062415;28;20121;-61
2023/03/26 11:44:04;;;;;;;2.40;0.70;;;;;;;9.57;82.37;96010.97;5065736;28;20079;-61
2023/03/26 11:46:37;;;;;;;1.75;0.70;;;;;;;9.13;85.92;96023.38;5065004;28;20036;-61
2023/03/26 11:49:09;;;;;;;2.42;0.70;;;;;;;8.66;94.54;96029.69;5082984;28;20818;-61
2023/03/26 11:51:38;;;;;;;2.13;0.70;;;;;;;8.35;100.00;96037.78;5080414;28;20044;-60
2023/03/26 11:54:09;;;;;;;3.60;0.60;;;;;;;8.16;100.00;96037.50;5078188;28;20123;-61
2023/03/26 11:56:49;;;;;;;1.42;0.50;;;;;;;8.27;98.92;96019.44;5078191;28;20106;-61
2023/03/26 11:59:45;;;;;;;2.47;0.60;;;;;;;8.62;99.97;96020.50;5064804;28;20047;-61
2023/03/26 12:02:34;;;;;;;1.20;0.55;;;;;;;8.81;96.68;96017.25;5074663;28;20039;-60
2023/03/26 12:05:32;;;;;;;1.25;0.55;;;;;;;9.00;100.00;96008.56;5080431;28;20388;-61
2023/03/26 12:08:01;;;;;;;2.00;0.70;;;;;;;9.26;99.11;96016.53;5081985;28;20065;-59
2023/03/26 12:10:31;;;;;;;4.93;0.60;;;;;;;9.40;96.05;96009.44;5069920;28;20036;-58
2023/03/26 12:13:01;;;;;;;1.58;0.75;;;;;;;9.48;94.12;96016.19;5062018;28;20040;-60
2023/03/26 12:15:30;;;;;;;3.75;1.15;;;;;;;9.52;94.63;96013.72;5079964;28;20058;-59
2023/03/26 12:18:16;;;;;;;1.98;0.73;;;;;;;9.41;89.75;96021.88;5059831;28;20503;-58
2023/03/26 12:20:43;;;;;;;3.97;0.75;;;;;;;9.62;91.37;96019.88;5071865;28;20039;-59
2023/03/26 12:23:35;;;;;;;1.15;0.57;;;;;;;9.66;89.95;96008.50;5082122;28;20039;-60
2023/03/26 12:26:13;;;;;;;5.95;0.80;;;;;;;9.59;87.79;96015.03;5063265;28;20467;-59
2023/03/26 12:28:47;;;;;;;1.83;0.90;;;;;;;9.63;85.71;96015.28;5075929;28;20490;-59
2023/03/26 12:31:17;;;;;;;2.28;0.68;;;;;;;9.85;84.43;96014.06;5077592;28;20127;-60